createdAt,value
2023-06-15T05:03:37.324Z,23.12
2023-06-15T05:04:38.192Z,23.34
2023-06-15T05:05:38.272Z,23.40
2023-06-15T05:06:37.320Z,23.44
2023-06-15T05:07:38.381Z,23.47
2023-06-15T05:08:38.459Z,23.49
2023-06-15T05:09:38.494Z,23.53
2023-06-15T05:10:46.056Z,23.55
2023-06-15T05:11:38.619Z,23.57
2023-06-15T05:12:38.548Z,23.57
2023-06-15T05:13:38.528Z,23.59
2023-06-15T05:14:37.512Z,23.60
2023-06-15T05:15:37.512Z,23.61
2023-06-15T05:16:38.499Z,23.62
2023-06-15T05:17:37.501Z,23.63
2023-06-15T05:18:38.498Z,23.63
2023-06-15T05:19:38.523Z,23.65
2023-06-15T05:20:38.485Z,23.65
2023-06-15T05:21:38.476Z,23.66
2023-06-15T05:22:38.462Z,23.65
2023-06-15T05:23:37.466Z,23.66
2023-06-15T05:24:38.441Z,23.66
2023-06-15T05:25:37.434Z,23.66
2023-06-15T05:26:38.426Z,23.64
2023-06-15T05:27:38.417Z,23.66
2023-06-15T05:28:38.415Z,23.68
2023-06-15T05:29:38.424Z,23.70
2023-06-15T05:30:38.403Z,23.71
2023-06-15T05:31:38.384Z,23.73
2023-06-15T05:32:37.459Z,23.75
2023-06-15T05:33:38.472Z,23.79
2023-06-15T05:34:38.493Z,23.79
2023-06-15T05:35:37.573Z,23.81
2023-06-15T05:37:37.610Z,23.88
2023-06-15T05:38:38.656Z,23.93
2023-06-15T05:39:38.718Z,23.97
2023-06-15T05:40:38.728Z,24.00
2023-06-15T05:41:39.962Z,24.01
2023-06-15T05:42:38.744Z,24.02
2023-06-15T05:43:37.735Z,24.07
2023-06-15T05:44:38.732Z,24.11
2023-06-15T05:45:40.813Z,24.17
2023-06-15T05:46:38.720Z,24.24
2023-06-15T05:47:38.698Z,24.25
2023-06-15T05:48:38.686Z,24.25
2023-06-15T05:49:37.666Z,24.27
2023-06-15T05:50:37.680Z,24.29
2023-06-15T05:51:38.717Z,24.30
2023-06-15T05:52:38.648Z,24.34
2023-06-15T05:53:38.649Z,24.38
2023-06-15T05:54:38.682Z,24.46
2023-06-15T05:55:38.625Z,24.52
2023-06-15T05:56:37.613Z,24.55
2023-06-15T05:57:38.618Z,24.58
2023-06-15T05:58:38.625Z,24.58
2023-06-15T05:59:37.590Z,24.54
2023-06-15T06:00:38.587Z,24.53
2023-06-15T06:01:38.569Z,24.51
2023-06-15T06:02:38.653Z,24.49
2023-06-15T06:03:37.572Z,24.46
2023-06-15T06:04:38.580Z,24.43
2023-06-15T06:05:38.551Z,24.39
2023-06-15T06:06:38.562Z,24.37
2023-06-15T06:07:38.560Z,24.35
2023-06-15T06:08:38.513Z,24.33
2023-06-15T06:09:38.534Z,24.34
2023-06-15T06:10:38.507Z,24.35
2023-06-15T06:11:38.502Z,24.36
2023-06-15T06:12:38.614Z,24.33
2023-06-15T06:13:37.497Z,24.30
2023-06-15T06:14:38.495Z,24.28
2023-06-15T06:15:37.473Z,24.26
2023-06-15T06:16:38.461Z,24.25
2023-06-15T06:17:53.376Z,24.27
2023-06-15T06:18:38.526Z,24.25
2023-06-15T06:19:38.459Z,24.26
2023-06-15T06:20:38.444Z,24.26
2023-06-15T06:21:38.446Z,24.25
2023-06-15T06:22:37.419Z,24.23
2023-06-15T06:23:38.442Z,24.22
2023-06-15T06:24:37.513Z,24.23
2023-06-15T06:25:37.416Z,24.24
2023-06-15T06:26:38.400Z,24.26
2023-06-15T06:27:38.383Z,24.24
2023-06-15T06:28:38.379Z,24.22
2023-06-15T06:29:38.372Z,24.21
2023-06-15T06:30:38.372Z,24.21
2023-06-15T06:31:38.356Z,24.20
2023-06-15T06:32:38.405Z,24.19
2023-06-15T06:33:38.352Z,24.18
2023-06-15T06:34:38.349Z,24.18
2023-06-15T06:35:38.332Z,24.18
2023-06-15T06:36:38.320Z,24.19
2023-06-15T06:37:38.300Z,24.22
2023-06-15T06:38:46.380Z,24.24
2023-06-15T06:39:39.437Z,24.24
2023-06-15T06:40:37.292Z,24.23
2023-06-15T06:41:38.266Z,24.21
2023-06-15T06:42:37.307Z,24.20
2023-06-15T06:43:38.270Z,24.20
2023-06-15T06:44:38.261Z,24.19
2023-06-15T06:45:37.245Z,24.18
2023-06-15T06:46:37.245Z,24.18
2023-06-15T06:47:38.328Z,24.19
2023-06-15T06:48:38.223Z,24.21
2023-06-15T06:49:38.216Z,24.25
2023-06-15T06:50:38.219Z,24.27
2023-06-15T06:51:38.207Z,24.28
2023-06-15T06:52:38.207Z,24.28
2023-06-15T06:53:38.228Z,24.28
2023-06-15T06:54:37.302Z,24.29
2023-06-15T06:55:38.206Z,24.26
2023-06-15T06:56:38.164Z,24.24
2023-06-15T06:57:38.157Z,24.23
2023-06-15T06:58:38.170Z,24.24
2023-06-15T06:59:43.656Z,24.19
2023-06-15T07:00:38.181Z,24.11
2023-06-15T07:01:37.129Z,24.05
2023-06-15T07:02:37.281Z,24.02
2023-06-15T07:03:38.246Z,23.97
2023-06-15T07:04:37.125Z,23.90
2023-06-15T07:05:37.102Z,23.87
2023-06-15T07:06:37.098Z,23.83
2023-06-15T07:07:38.084Z,23.78
2023-06-15T07:08:38.063Z,23.76
2023-06-15T07:09:38.084Z,23.74
2023-06-15T07:10:38.062Z,23.73
2023-06-15T07:11:38.070Z,23.78
2023-06-15T07:12:37.048Z,23.78
2023-06-15T07:13:37.031Z,23.77
2023-06-15T07:14:38.051Z,23.78
2023-06-15T07:15:38.022Z,23.79
2023-06-15T07:16:37.018Z,23.82
2023-06-15T07:17:37.051Z,23.83
2023-06-15T07:18:38.029Z,23.86
2023-06-15T07:19:36.999Z,23.86
2023-06-15T07:20:36.986Z,23.84
2023-06-15T07:21:37.984Z,23.78
2023-06-15T07:22:37.979Z,23.77
2023-06-15T07:23:52.274Z,23.76
2023-06-15T07:24:38.002Z,23.80
2023-06-15T07:25:37.970Z,23.82
2023-06-15T07:26:37.974Z,23.82
2023-06-15T07:27:36.971Z,23.78
2023-06-15T07:28:37.935Z,23.77
2023-06-15T07:29:37.925Z,23.75
2023-06-15T07:30:37.905Z,23.75
2023-06-15T07:31:38.032Z,23.74
2023-06-15T07:32:36.986Z,23.76
2023-06-15T07:33:37.891Z,23.78
2023-06-15T07:34:36.968Z,23.80
2023-06-15T07:35:37.906Z,23.82
2023-06-15T07:36:36.868Z,23.85
2023-06-15T07:37:37.939Z,23.89
2023-06-15T07:38:37.875Z,23.93
2023-06-15T07:39:36.862Z,23.97
2023-06-15T07:40:36.855Z,24.01
2023-06-15T07:41:37.917Z,24.05
2023-06-15T07:42:37.946Z,24.10
2023-06-15T07:43:37.084Z,24.13
2023-06-15T07:44:38.034Z,24.16
2023-06-15T07:45:37.030Z,24.23
2023-06-15T07:46:38.069Z,24.30
2023-06-15T07:47:38.101Z,24.33
2023-06-15T07:48:38.101Z,24.42
2023-06-15T07:49:46.152Z,24.45
2023-06-15T07:50:38.130Z,24.51
2023-06-15T07:51:42.259Z,24.59
2023-06-15T07:52:38.101Z,24.68
2023-06-15T07:53:38.090Z,24.73
2023-06-15T07:54:38.075Z,24.77
2023-06-15T07:55:38.094Z,24.78
2023-06-15T07:56:38.110Z,24.82
2023-06-15T07:57:38.065Z,24.87
2023-06-15T07:58:39.309Z,24.88
2023-06-15T07:59:37.076Z,24.90
2023-06-15T08:00:38.032Z,24.89
2023-06-15T08:01:38.036Z,24.90
2023-06-15T08:02:37.136Z,24.92
2023-06-15T08:03:37.065Z,24.91
2023-06-15T08:04:38.048Z,24.92
2023-06-15T08:05:38.048Z,24.91
2023-06-15T08:06:38.049Z,24.87
2023-06-15T08:07:38.054Z,24.83
2023-06-15T08:08:38.046Z,24.83
2023-06-15T08:09:38.054Z,24.86
2023-06-15T08:10:39.452Z,24.90
2023-06-15T08:11:37.025Z,24.86
2023-06-15T08:12:38.032Z,24.85
2023-06-15T08:13:38.009Z,24.86
2023-06-15T08:14:38.020Z,24.77
2023-06-15T08:15:38.030Z,24.66
2023-06-15T08:16:37.998Z,24.56
2023-06-15T08:17:38.017Z,24.49
2023-06-15T08:18:36.981Z,24.56
2023-06-15T08:19:37.976Z,24.64
2023-06-15T08:20:37.977Z,24.73
2023-06-15T08:21:37.962Z,24.83
2023-06-15T08:22:36.959Z,24.91
2023-06-15T08:23:37.950Z,25.00
2023-06-15T08:24:37.127Z,25.08
2023-06-15T08:25:37.928Z,25.19
2023-06-15T08:26:37.938Z,25.25
2023-06-15T08:27:37.926Z,25.32
2023-06-15T08:28:51.953Z,25.38
2023-06-15T08:29:37.933Z,25.44
2023-06-15T08:30:36.934Z,25.48
2023-06-15T08:31:39.964Z,25.54
2023-06-15T08:32:36.943Z,25.57
2023-06-15T08:33:37.880Z,25.61
2023-06-15T08:34:37.872Z,25.64
2023-06-15T08:35:37.863Z,25.67
2023-06-15T08:36:37.858Z,25.70
2023-06-15T08:37:37.872Z,25.71
2023-06-15T08:38:37.856Z,25.72
2023-06-15T08:39:37.836Z,25.73
2023-06-15T08:40:37.822Z,25.74
2023-06-15T08:41:37.850Z,25.73
2023-06-15T08:42:37.855Z,25.74
2023-06-15T08:43:37.817Z,25.60
2023-06-15T08:44:37.830Z,25.44
2023-06-15T08:45:37.811Z,25.30
2023-06-15T08:46:37.797Z,25.20
2023-06-15T08:47:37.916Z,25.13
2023-06-15T08:48:37.784Z,25.03
2023-06-15T08:49:37.785Z,24.97
2023-06-15T08:50:37.759Z,24.89
2023-06-15T08:51:37.773Z,24.84
2023-06-15T08:52:36.751Z,24.78
2023-06-15T08:53:37.735Z,24.71
2023-06-15T08:54:37.759Z,24.65
2023-06-15T08:55:37.741Z,24.55
2023-06-15T08:56:37.722Z,24.47
2023-06-15T08:57:36.709Z,24.46
2023-06-15T08:58:37.695Z,24.48
2023-06-15T08:59:37.840Z,24.53
2023-06-15T09:00:37.705Z,24.61
2023-06-15T09:01:36.702Z,24.67
2023-06-15T09:02:36.694Z,24.74
2023-06-15T09:03:37.695Z,24.81
2023-06-15T09:04:37.753Z,24.87
2023-06-15T09:05:37.657Z,24.93
2023-06-15T09:06:36.669Z,24.99
2023-06-15T09:07:37.647Z,25.03
2023-06-15T09:08:37.635Z,25.08
2023-06-15T09:09:37.662Z,25.12
2023-06-15T09:10:37.714Z,25.17
2023-06-15T09:11:37.748Z,25.22
2023-06-15T09:12:37.796Z,25.27
2023-06-15T09:13:36.841Z,25.33
2023-06-15T09:14:37.971Z,25.38
2023-06-15T09:15:37.966Z,25.43
2023-06-15T09:16:37.959Z,25.47
2023-06-15T09:17:38.003Z,25.49
2023-06-15T09:18:38.016Z,25.50
2023-06-15T09:19:37.113Z,25.51
2023-06-15T09:20:38.097Z,25.52
2023-06-15T09:21:38.113Z,25.52
2023-06-15T09:22:37.212Z,25.54
2023-06-15T09:23:38.166Z,25.55
2023-06-15T09:24:38.280Z,25.56
2023-06-15T09:25:38.247Z,25.58
2023-06-15T09:26:38.268Z,25.60
2023-06-15T09:27:38.298Z,25.60
2023-06-15T09:28:38.334Z,25.60
2023-06-15T09:29:38.355Z,25.62
2023-06-15T09:30:38.366Z,25.61
2023-06-15T09:31:38.394Z,25.62
2023-06-15T09:32:38.455Z,25.64
2023-06-15T09:33:38.456Z,25.65
2023-06-15T09:34:38.497Z,25.69
2023-06-15T09:35:37.556Z,25.72
2023-06-15T09:36:38.516Z,25.74
2023-06-15T09:37:38.539Z,25.75
2023-06-15T09:38:38.563Z,25.77
2023-06-15T09:39:39.948Z,25.80
2023-06-15T09:40:38.578Z,25.81
2023-06-15T09:41:38.566Z,25.83
2023-06-15T09:42:37.560Z,25.84
2023-06-15T09:43:38.578Z,25.86
2023-06-15T09:44:38.558Z,25.88
2023-06-15T09:45:38.596Z,25.90
2023-06-15T09:46:38.541Z,25.89
2023-06-15T09:47:38.622Z,25.90
2023-06-15T09:48:37.516Z,25.90
2023-06-15T09:49:38.519Z,25.87
2023-06-15T09:50:38.859Z,25.83
2023-06-15T09:51:38.578Z,25.82
2023-06-15T09:52:38.505Z,25.80
2023-06-15T09:53:38.557Z,25.79
2023-06-15T09:54:38.488Z,25.77
2023-06-15T09:55:38.473Z,25.74
2023-06-15T09:56:38.470Z,25.66
2023-06-15T09:57:37.450Z,25.62
2023-06-15T09:58:38.448Z,25.55
2023-06-15T09:59:37.436Z,25.53
2023-06-15T10:00:38.507Z,25.51
2023-06-15T10:01:38.435Z,25.50
2023-06-15T10:02:38.506Z,25.49
2023-06-15T10:03:38.450Z,25.48
2023-06-15T10:04:38.440Z,25.47
2023-06-15T10:05:38.402Z,25.46
2023-06-15T10:06:38.392Z,25.46
2023-06-15T10:07:38.418Z,25.45
2023-06-15T10:08:38.377Z,25.43
2023-06-15T10:09:38.379Z,25.44
2023-06-15T10:10:38.395Z,25.43
2023-06-15T10:11:38.448Z,25.44
2023-06-15T10:12:38.486Z,25.44
2023-06-15T10:13:38.536Z,25.45
2023-06-15T10:14:38.610Z,25.45
2023-06-15T10:15:38.659Z,25.45
2023-06-15T10:16:38.731Z,25.45
2023-06-15T10:17:38.929Z,25.46
2023-06-15T10:18:38.833Z,25.47
2023-06-15T10:19:38.898Z,25.48
2023-06-15T10:20:38.977Z,25.49
2023-06-15T10:21:39.863Z,25.48
2023-06-15T10:22:39.108Z,25.49
2023-06-15T10:23:42.485Z,25.50
2023-06-15T10:24:39.192Z,25.49
2023-06-15T10:25:39.255Z,25.50
2023-06-15T10:26:39.138Z,25.49
2023-06-15T10:27:39.160Z,25.50
2023-06-15T10:28:39.169Z,25.51
2023-06-15T10:29:39.145Z,25.51
2023-06-15T10:30:39.108Z,25.52
2023-06-15T10:31:39.105Z,25.51
2023-06-15T10:32:39.149Z,25.51
2023-06-15T10:33:39.100Z,25.51
2023-06-15T10:34:38.079Z,25.52
2023-06-15T10:35:39.094Z,25.52
2023-06-15T10:36:39.109Z,25.52
2023-06-15T10:37:39.140Z,25.52
2023-06-15T10:38:39.195Z,25.52
2023-06-15T10:39:39.275Z,25.51
2023-06-15T10:40:39.331Z,25.52
2023-06-15T10:41:39.368Z,25.51
2023-06-15T10:42:39.493Z,25.52
2023-06-15T10:43:39.469Z,25.52
2023-06-15T10:44:39.523Z,25.52
2023-06-15T10:45:38.881Z,25.51
2023-06-15T10:46:39.630Z,25.51
2023-06-15T10:47:39.709Z,25.50
2023-06-15T10:48:39.775Z,25.51
2023-06-15T10:49:39.792Z,25.51
2023-06-15T10:50:39.891Z,25.50
2023-06-15T10:51:39.903Z,25.50
2023-06-15T10:52:38.923Z,25.50
2023-06-15T10:53:39.974Z,25.49
2023-06-15T10:54:40.030Z,25.49
2023-06-15T10:55:40.069Z,25.47
2023-06-15T10:56:40.167Z,25.47
2023-06-15T10:57:40.161Z,25.45
2023-06-15T10:58:40.257Z,25.45
2023-06-15T10:59:40.335Z,25.44
2023-06-15T11:00:40.370Z,25.43
2023-06-15T11:01:40.413Z,25.44
2023-06-15T11:02:40.513Z,25.44
2023-06-15T11:03:40.531Z,25.42
2023-06-15T11:04:40.658Z,25.41
2023-06-15T11:05:39.650Z,25.41
2023-06-15T11:06:40.722Z,25.39
2023-06-15T11:07:40.782Z,25.39
2023-06-15T11:08:40.843Z,25.39
2023-06-15T11:09:40.869Z,25.37
2023-06-15T11:10:40.984Z,25.37
2023-06-15T11:11:40.977Z,25.36
2023-06-15T11:12:40.081Z,25.36
2023-06-15T11:13:41.111Z,25.35
2023-06-15T11:14:41.182Z,25.35
2023-06-15T11:15:41.233Z,25.34
2023-06-15T11:16:41.317Z,25.33
2023-06-15T11:17:41.377Z,25.33
2023-06-15T11:18:41.445Z,25.33
2023-06-15T11:19:41.510Z,25.33
2023-06-15T11:20:41.123Z,25.32
2023-06-15T11:21:40.645Z,25.32
2023-06-15T11:22:40.690Z,25.33
2023-06-15T11:23:40.756Z,25.33
2023-06-15T11:24:41.816Z,25.33
2023-06-15T11:25:41.894Z,25.33
2023-06-15T11:26:41.972Z,25.33
2023-06-15T11:27:42.014Z,25.33
2023-06-15T11:28:42.054Z,25.33
2023-06-15T11:29:41.149Z,25.34
2023-06-15T11:30:41.186Z,25.34
2023-06-15T11:31:42.202Z,25.34
2023-06-15T11:32:41.255Z,25.34
2023-06-15T11:33:42.302Z,25.34
2023-06-15T11:34:42.892Z,25.34
2023-06-15T11:35:42.400Z,25.34
2023-06-15T11:36:42.443Z,25.34
2023-06-15T11:37:41.494Z,25.34
2023-06-15T11:38:42.586Z,25.33
2023-06-15T11:39:42.579Z,25.34
2023-06-15T11:40:41.670Z,25.34
2023-06-15T11:41:42.720Z,25.34
2023-06-15T11:42:41.833Z,25.33
2023-06-15T11:43:42.847Z,25.34
2023-06-15T11:44:43.154Z,25.33
2023-06-15T11:45:42.975Z,25.33
2023-06-15T11:46:43.046Z,25.33
2023-06-15T11:47:43.129Z,25.34
2023-06-15T11:48:43.594Z,25.33
2023-06-15T11:49:43.219Z,25.32
2023-06-15T11:50:43.313Z,25.32
2023-06-15T11:51:43.343Z,25.32
2023-06-15T11:52:43.405Z,25.32
2023-06-15T11:53:43.470Z,25.33
2023-06-15T11:54:52.469Z,25.33
2023-06-15T11:55:43.527Z,25.32
2023-06-15T11:56:43.498Z,25.31
2023-06-15T11:57:42.516Z,25.32
2023-06-15T11:58:43.515Z,25.32
2023-06-15T11:59:43.489Z,25.31
2023-06-15T12:00:43.490Z,25.31
2023-06-15T12:01:42.457Z,25.30
2023-06-15T12:02:42.564Z,25.30
2023-06-15T12:03:50.236Z,25.30
2023-06-15T12:04:43.547Z,25.29
2023-06-15T12:05:45.881Z,25.30
2023-06-15T12:06:42.441Z,25.30
2023-06-15T12:07:43.436Z,25.30
2023-06-15T12:08:43.421Z,25.30
2023-06-15T12:09:43.437Z,25.30
2023-06-15T12:10:42.419Z,25.30
2023-06-15T12:11:43.401Z,25.30
2023-06-15T12:12:43.400Z,25.30
2023-06-15T12:13:43.395Z,25.30
2023-06-15T12:14:42.441Z,25.29
2023-06-15T12:15:43.437Z,25.29
2023-06-15T12:16:43.483Z,25.29
2023-06-15T12:17:43.412Z,25.29
2023-06-15T12:18:43.354Z,25.29
2023-06-15T12:19:43.363Z,25.29
2023-06-15T12:20:43.349Z,25.29
2023-06-15T12:21:43.321Z,25.29
2023-06-15T12:22:43.346Z,25.29
2023-06-15T12:23:42.323Z,25.28
2023-06-15T12:24:43.336Z,25.28
2023-06-15T12:25:42.302Z,25.29
2023-06-15T12:26:43.301Z,25.28
2023-06-15T12:27:43.338Z,25.28
2023-06-15T12:28:43.285Z,25.27
2023-06-15T12:29:43.282Z,25.27
2023-06-15T12:30:42.339Z,25.28
2023-06-15T12:31:42.298Z,25.27
2023-06-15T12:32:43.281Z,25.26
2023-06-15T12:33:43.328Z,25.26
2023-06-15T12:34:44.333Z,25.27
2023-06-15T12:35:43.388Z,25.26
2023-06-15T12:36:43.421Z,25.26
2023-06-15T12:37:50.658Z,25.26
2023-06-15T12:38:43.477Z,25.25
2023-06-15T12:39:43.439Z,25.25
2023-06-15T12:40:43.448Z,25.24
2023-06-15T12:41:43.464Z,25.24
2023-06-15T12:42:42.437Z,25.24
2023-06-15T12:43:42.421Z,25.24
2023-06-15T12:44:43.432Z,25.24
2023-06-15T12:45:43.459Z,25.24
2023-06-15T12:46:43.498Z,25.24
2023-06-15T12:47:43.479Z,25.24
2023-06-15T12:48:43.394Z,25.25
2023-06-15T12:49:43.460Z,25.25
2023-06-15T12:50:43.497Z,25.25
2023-06-15T12:51:42.497Z,25.24
2023-06-15T12:52:43.522Z,25.24
2023-06-15T12:53:43.566Z,25.23
2023-06-15T12:54:43.596Z,25.23
2023-06-15T12:55:42.624Z,25.23
2023-06-15T12:56:43.640Z,25.24
2023-06-15T12:57:43.626Z,25.23
2023-06-15T12:58:43.634Z,25.22
2023-06-15T12:59:43.684Z,25.20
2023-06-15T13:00:43.766Z,25.15
2023-06-15T13:01:42.789Z,25.08
2023-06-15T13:02:43.944Z,25.01
2023-06-15T13:03:44.108Z,24.98
2023-06-15T13:04:44.120Z,24.94
2023-06-15T13:05:42.820Z,24.90
2023-06-15T13:06:42.820Z,24.90
2023-06-15T13:07:43.810Z,24.91
2023-06-15T13:08:43.822Z,24.92
2023-06-15T13:09:43.837Z,24.92
2023-06-15T13:10:43.840Z,24.94
2023-06-15T13:11:43.841Z,24.96
2023-06-15T13:12:43.874Z,24.98
2023-06-15T13:13:43.875Z,25.00
2023-06-15T13:14:43.904Z,25.01
2023-06-15T13:15:43.919Z,25.03
2023-06-15T13:16:43.027Z,25.03
2023-06-15T13:17:43.967Z,25.04
2023-06-15T13:18:43.978Z,25.07
2023-06-15T13:19:43.943Z,25.07
2023-06-15T13:20:42.959Z,25.08
2023-06-15T13:21:43.940Z,25.09
2023-06-15T13:22:43.938Z,25.10
2023-06-15T13:23:44.014Z,25.10
2023-06-15T13:24:42.941Z,25.11
2023-06-15T13:25:42.951Z,25.12
2023-06-15T13:26:43.968Z,25.12
2023-06-15T13:27:43.947Z,25.12
2023-06-15T13:28:43.944Z,25.13
2023-06-15T13:29:43.929Z,25.13
2023-06-15T13:30:43.911Z,25.14
2023-06-15T13:31:43.953Z,25.14
2023-06-15T13:32:44.019Z,25.14
2023-06-15T13:33:43.907Z,25.14
2023-06-15T13:34:43.951Z,25.13
2023-06-15T13:35:43.930Z,25.14
2023-06-15T13:36:43.925Z,25.14
2023-06-15T13:37:43.937Z,25.14
2023-06-15T13:38:43.933Z,25.14
2023-06-15T13:39:43.946Z,25.13
2023-06-15T13:40:43.935Z,25.13
2023-06-15T13:41:43.952Z,25.14
2023-06-15T13:42:43.970Z,25.13
2023-06-15T13:43:43.936Z,25.14
2023-06-15T13:44:42.953Z,25.14
2023-06-15T13:45:43.973Z,25.14
2023-06-15T13:46:43.985Z,25.14
2023-06-15T13:47:43.993Z,25.14
2023-06-15T13:48:43.936Z,25.14
2023-06-15T13:49:43.930Z,25.14
2023-06-15T13:50:42.949Z,25.15
2023-06-15T13:51:42.942Z,25.16
2023-06-15T13:52:42.921Z,25.15
2023-06-15T13:53:43.933Z,25.15
2023-06-15T13:54:43.930Z,25.15
2023-06-15T13:55:43.964Z,25.14
2023-06-15T13:56:42.929Z,25.14
2023-06-15T13:57:43.913Z,25.14
2023-06-15T13:58:43.929Z,25.14
2023-06-15T13:59:42.912Z,25.14
2023-06-15T14:00:43.915Z,25.14
2023-06-15T14:01:43.943Z,25.14
2023-06-15T14:02:43.984Z,25.13
2023-06-15T14:03:43.955Z,25.13
2023-06-15T14:04:43.921Z,25.13
2023-06-15T14:05:43.993Z,25.13
2023-06-15T14:06:43.930Z,25.14
2023-06-15T14:07:43.949Z,25.14
2023-06-15T14:08:42.930Z,25.14
2023-06-15T14:09:43.934Z,25.14
2023-06-15T14:10:43.923Z,25.14
2023-06-15T14:11:43.934Z,25.13
2023-06-15T14:12:43.897Z,25.13
2023-06-15T14:13:43.881Z,25.13
2023-06-15T14:14:43.922Z,25.13
2023-06-15T14:15:42.883Z,25.13
2023-06-15T14:16:43.935Z,25.13
2023-06-15T14:17:42.905Z,25.14
2023-06-15T14:18:43.862Z,25.14
2023-06-15T14:19:42.858Z,25.15
2023-06-15T14:20:43.884Z,25.15
2023-06-15T14:21:43.853Z,25.15
2023-06-15T14:22:43.906Z,25.16
2023-06-15T14:23:43.897Z,25.16
2023-06-15T14:24:43.882Z,25.17
2023-06-15T14:25:43.858Z,25.16
2023-06-15T14:26:43.877Z,25.16
2023-06-15T14:27:43.849Z,25.15
2023-06-15T14:28:43.852Z,25.15
2023-06-15T14:29:43.853Z,25.15
2023-06-15T14:30:43.836Z,25.15
2023-06-15T14:31:43.915Z,25.16
2023-06-15T14:32:43.904Z,25.16
2023-06-15T14:33:43.868Z,25.16
2023-06-15T14:34:42.879Z,25.16
2023-06-15T14:35:43.907Z,25.15
2023-06-15T14:36:43.935Z,25.16
2023-06-15T14:37:43.940Z,25.15
2023-06-15T14:38:43.998Z,25.15
2023-06-15T14:39:42.978Z,25.16
2023-06-15T14:40:44.008Z,25.17
2023-06-15T14:41:44.018Z,25.16
2023-06-15T14:42:44.014Z,25.16
2023-06-15T14:43:43.996Z,25.16
2023-06-15T14:44:43.028Z,25.18
2023-06-15T14:45:44.052Z,25.18
2023-06-15T14:46:44.016Z,25.18
2023-06-15T14:47:43.083Z,25.18
2023-06-15T14:48:44.939Z,25.18
2023-06-15T14:49:44.076Z,25.20
2023-06-15T14:50:44.053Z,25.20
2023-06-15T14:51:44.046Z,25.22
2023-06-15T14:52:44.049Z,25.22
2023-06-15T14:53:44.065Z,25.23
2023-06-15T14:54:44.139Z,25.25
2023-06-15T14:55:43.164Z,25.26
2023-06-15T14:56:44.216Z,25.27
2023-06-15T14:57:44.253Z,25.28
2023-06-15T14:58:43.260Z,25.29
2023-06-15T14:59:44.276Z,25.30
2023-06-15T15:00:44.347Z,25.32
2023-06-15T15:01:44.404Z,25.32
2023-06-15T15:02:44.460Z,25.33
2023-06-15T15:03:43.470Z,25.34
2023-06-15T15:04:43.451Z,25.36
2023-06-15T15:05:44.451Z,25.37
2023-06-15T15:06:44.476Z,25.38
2023-06-15T15:07:43.518Z,25.39
2023-06-15T15:08:43.582Z,25.40
2023-06-15T15:09:43.661Z,25.41
2023-06-15T15:10:44.760Z,25.42
2023-06-15T15:11:44.769Z,25.43
2023-06-15T15:12:44.830Z,25.44
2023-06-15T15:13:44.878Z,25.46
2023-06-15T15:14:44.958Z,25.47
2023-06-15T15:15:45.004Z,25.47
2023-06-15T15:16:45.172Z,25.48
2023-06-15T15:17:45.227Z,25.49
2023-06-15T15:18:44.189Z,25.50
2023-06-15T15:19:45.217Z,25.51
2023-06-15T15:20:45.246Z,25.52
2023-06-15T15:21:44.346Z,25.53
2023-06-15T15:22:45.341Z,25.55
2023-06-15T15:23:44.423Z,25.55
2023-06-15T15:24:45.431Z,25.56
2023-06-15T15:25:45.465Z,25.57
2023-06-15T15:26:45.519Z,25.57
2023-06-15T15:27:45.527Z,25.59
2023-06-15T15:28:45.550Z,25.58
2023-06-15T15:29:44.581Z,25.54
2023-06-15T15:30:45.627Z,25.52
2023-06-15T15:31:45.690Z,25.52
2023-06-15T15:32:45.780Z,25.51
2023-06-15T15:33:44.778Z,25.50
2023-06-15T15:34:45.892Z,25.49
2023-06-15T15:35:45.866Z,25.48
2023-06-15T15:36:44.937Z,25.47
2023-06-15T15:37:45.959Z,25.46
2023-06-15T15:38:46.017Z,25.45
2023-06-15T15:39:45.059Z,25.44
2023-06-15T15:40:46.128Z,25.44
2023-06-15T15:41:46.178Z,25.45
2023-06-15T15:42:46.245Z,25.46
2023-06-15T15:43:46.261Z,25.47
2023-06-15T15:44:46.339Z,25.47
2023-06-15T15:45:46.404Z,25.46
2023-06-15T15:46:46.551Z,25.45
2023-06-15T15:47:45.540Z,25.44
2023-06-15T15:48:45.518Z,25.43
2023-06-15T15:49:46.570Z,25.42
2023-06-15T15:50:46.618Z,25.42
2023-06-15T15:51:46.673Z,25.41
2023-06-15T15:52:46.768Z,25.40
2023-06-15T15:53:46.800Z,25.40
2023-06-15T15:54:45.886Z,25.40
2023-06-15T15:55:46.917Z,25.38
2023-06-15T15:56:47.010Z,25.39
2023-06-15T15:57:47.631Z,25.38
2023-06-15T15:58:46.150Z,25.38
2023-06-15T15:59:47.203Z,25.38
2023-06-15T16:00:47.265Z,25.37
2023-06-15T16:01:47.348Z,25.36
2023-06-15T16:02:46.501Z,25.36
2023-06-15T16:03:46.604Z,25.36
2023-06-15T16:04:47.517Z,25.34
2023-06-15T16:05:47.567Z,25.34
2023-06-15T16:06:46.643Z,25.33
2023-06-15T16:07:47.696Z,25.34
2023-06-15T16:08:47.764Z,25.32
2023-06-15T16:09:47.820Z,25.32
2023-06-15T16:10:46.895Z,25.32
2023-06-15T16:11:47.937Z,25.32
2023-06-15T16:12:46.992Z,25.31
2023-06-15T16:13:48.057Z,25.31
2023-06-15T16:14:48.109Z,25.30
2023-06-15T16:15:55.595Z,25.30
2023-06-15T16:16:48.238Z,25.30
2023-06-15T16:17:48.189Z,25.30
2023-06-15T16:18:47.146Z,25.29
2023-06-15T16:19:48.125Z,25.29
2023-06-15T16:20:48.122Z,25.29
2023-06-15T16:21:48.115Z,25.27
2023-06-15T16:22:47.110Z,25.28
2023-06-15T16:23:48.176Z,25.27
2023-06-15T16:24:48.095Z,25.26
2023-06-15T16:25:47.096Z,25.26
2023-06-15T16:26:48.115Z,25.26
2023-06-15T16:27:47.184Z,25.26
2023-06-15T16:28:48.330Z,25.25
2023-06-15T16:29:48.290Z,25.24
2023-06-15T16:30:48.370Z,25.24
2023-06-15T16:31:48.398Z,25.23
2023-06-15T16:32:48.462Z,25.24
2023-06-15T16:33:48.487Z,25.24
2023-06-15T16:34:48.503Z,25.23
2023-06-15T16:35:47.500Z,25.22
2023-06-15T16:36:48.566Z,25.22
2023-06-15T16:37:48.539Z,25.22
2023-06-15T16:38:48.543Z,25.21
2023-06-15T16:39:48.580Z,25.21
2023-06-15T16:40:48.626Z,25.21
2023-06-15T16:41:47.609Z,25.20
2023-06-15T16:42:47.606Z,25.20
2023-06-15T16:43:47.592Z,25.20
2023-06-15T16:44:48.603Z,25.19
2023-06-15T16:45:48.701Z,25.19
2023-06-15T16:46:48.692Z,25.18
2023-06-15T16:47:47.714Z,25.18
2023-06-15T16:48:47.753Z,25.18
2023-06-15T16:49:47.801Z,25.18
2023-06-15T16:50:48.828Z,25.17
2023-06-15T16:51:48.864Z,25.16
2023-06-15T16:52:48.895Z,25.16
2023-06-15T16:53:48.943Z,25.16
2023-06-15T16:54:48.957Z,25.16
2023-06-15T16:55:48.969Z,25.16
2023-06-15T16:56:48.969Z,25.16
2023-06-15T16:57:48.971Z,25.16
2023-06-15T16:58:48.985Z,25.15
2023-06-15T16:59:48.989Z,25.14
2023-06-15T17:00:49.083Z,25.13
2023-06-15T17:01:48.999Z,25.13
2023-06-15T17:02:49.117Z,25.13
2023-06-15T17:03:49.186Z,25.13
2023-06-15T17:04:48.991Z,25.13
2023-06-15T17:05:48.983Z,25.13
2023-06-15T17:06:47.988Z,25.12
2023-06-15T17:07:48.965Z,25.12
2023-06-15T17:08:48.982Z,25.12
2023-06-15T17:09:48.981Z,25.12
2023-06-15T17:10:48.969Z,25.12
2023-06-15T17:11:48.997Z,25.11
2023-06-15T17:12:48.979Z,25.10
2023-06-15T17:13:48.988Z,25.10
2023-06-15T17:14:47.983Z,25.09
2023-06-15T17:15:49.048Z,25.09
2023-06-15T17:16:48.985Z,25.09
2023-06-15T17:17:49.021Z,25.09
2023-06-15T17:18:49.038Z,25.08
2023-06-15T17:19:47.987Z,25.08
2023-06-15T17:20:49.038Z,25.08
2023-06-15T17:21:49.030Z,25.08
2023-06-15T17:22:49.024Z,25.08
2023-06-15T17:23:49.137Z,25.08
2023-06-15T17:24:49.056Z,25.07
2023-06-15T17:25:49.049Z,25.07
2023-06-15T17:26:49.098Z,25.07
2023-06-15T17:27:49.058Z,25.06
2023-06-15T17:28:49.075Z,25.05
2023-06-15T17:29:49.088Z,25.05
2023-06-15T17:32:07.487Z,24.99
2023-06-15T17:33:07.150Z,25.00
2023-06-15T17:34:08.095Z,25.01
2023-06-15T17:35:08.076Z,25.01
2023-06-15T17:36:08.090Z,25.01
2023-06-15T17:37:08.071Z,25.01
2023-06-15T17:38:08.059Z,25.01
2023-06-15T17:39:08.160Z,25.01
2023-06-15T17:40:08.194Z,25.00
2023-06-15T17:41:08.038Z,25.00
2023-06-15T17:42:07.023Z,24.99
2023-06-15T17:43:08.060Z,24.99
2023-06-15T17:44:07.994Z,24.98
2023-06-15T17:45:08.000Z,24.98
2023-06-15T17:47:26.093Z,24.88
2023-06-15T17:48:27.082Z,24.92
2023-06-15T17:49:27.040Z,24.93
2023-06-15T17:51:45.203Z,24.89
2023-06-15T17:52:46.465Z,24.92
2023-06-15T17:53:44.966Z,24.92
2023-06-15T17:54:45.958Z,24.94
2023-06-15T17:55:44.928Z,24.95
2023-06-15T17:56:45.940Z,24.93
2023-06-15T17:57:45.910Z,24.95
2023-06-15T17:58:45.979Z,24.93
2023-06-15T17:59:45.918Z,24.92
2023-06-15T18:00:44.995Z,24.92